sensor_id;sensor_type;location;lat;lon;timestamp;P1;durP1;ratioP1;P2;durP2;ratioP2
16845;SDS011;8539;53.188;8.696;2024-02-23T00:00:52;0.77;;;0.30;;
16845;SDS011;8539;53.188;8.696;2024-02-23T00:03:19;0.85;;;0.65;;
16845;SDS011;8539;53.188;8.696;2024-02-23T00:05:46;0.52;;;0.47;;
16845;SDS011;8539;53.188;8.696;2024-02-23T00:08:13;1.65;;;0.50;;
16845;SDS011;8539;53.188;8.696;2024-02-23T00:10:40;0.55;;;0.30;;
16845;SDS011;8539;53.188;8.696;2024-02-23T00:13:08;0.80;;;0.50;;
16845;SDS011;8539;53.188;8.696;2024-02-23T00:15:35;0.40;;;0.40;;
16845;SDS011;8539;53.188;8.696;2024-02-23T00:18:02;1.20;;;0.40;;
16845;SDS011;8539;53.188;8.696;2024-02-23T00:20:30;0.80;;;0.65;;
16845;SDS011;8539;53.188;8.696;2024-02-23T00:23:01;1.50;;;0.57;;
16845;SDS011;8539;53.188;8.696;2024-02-23T00:25:29;1.05;;;0.50;;
16845;SDS011;8539;53.188;8.696;2024-02-23T00:27:56;0.43;;;0.43;;
16845;SDS011;8539;53.188;8.696;2024-02-23T00:30:23;0.77;;;0.50;;
16845;SDS011;8539;53.188;8.696;2024-02-23T00:32:52;0.88;;;0.63;;
16845;SDS011;8539;53.188;8.696;2024-02-23T00:35:19;0.30;;;0.30;;
16845;SDS011;8539;53.188;8.696;2024-02-23T00:37:46;0.40;;;0.30;;
16845;SDS011;8539;53.188;8.696;2024-02-23T00:40:13;1.80;;;0.65;;
16845;SDS011;8539;53.188;8.696;2024-02-23T00:42:41;0.30;;;0.30;;
16845;SDS011;8539;53.188;8.696;2024-02-23T00:45:08;1.10;;;0.30;;
16845;SDS011;8539;53.188;8.696;2024-02-23T00:47:35;0.50;;;0.50;;
16845;SDS011;8539;53.188;8.696;2024-02-23T00:50:04;1.13;;;0.35;;
16845;SDS011;8539;53.188;8.696;2024-02-23T00:52:32;0.20;;;0.20;;
16845;SDS011;8539;53.188;8.696;2024-02-23T00:55:00;0.20;;;0.20;;
16845;SDS011;8539;53.188;8.696;2024-02-23T00:57:30;0.82;;;0.20;;
16845;SDS011;8539;53.188;8.696;2024-02-23T00:59:57;0.20;;;0.20;;
16845;SDS011;8539;53.188;8.696;2024-02-23T01:02:24;2.63;;;0.47;;
16845;SDS011;8539;53.188;8.696;2024-02-23T01:04:51;0.63;;;0.30;;
16845;SDS011;8539;53.188;8.696;2024-02-23T01:07:23;0.20;;;0.20;;
16845;SDS011;8539;53.188;8.696;2024-02-23T01:09:50;1.40;;;1.02;;
16845;SDS011;8539;53.188;8.696;2024-02-23T01:12:18;0.20;;;0.20;;
16845;SDS011;8539;53.188;8.696;2024-02-23T01:14:46;0.10;;;0.10;;
16845;SDS011;8539;53.188;8.696;2024-02-23T01:17:15;0.28;;;0.25;;
16845;SDS011;8539;53.188;8.696;2024-02-23T01:19:43;0.30;;;0.30;;
16845;SDS011;8539;53.188;8.696;2024-02-23T01:22:11;0.20;;;0.20;;
16845;SDS011;8539;53.188;8.696;2024-02-23T01:24:38;0.52;;;0.20;;
16845;SDS011;8539;53.188;8.696;2024-02-23T01:27:05;1.70;;;0.30;;
16845;SDS011;8539;53.188;8.696;2024-02-23T01:29:32;0.17;;;0.17;;
16845;SDS011;8539;53.188;8.696;2024-02-23T01:32:00;0.10;;;0.10;;
16845;SDS011;8539;53.188;8.696;2024-02-23T01:34:28;0.20;;;0.20;;
16845;SDS011;8539;53.188;8.696;2024-02-23T01:36:55;0.47;;;0.30;;
16845;SDS011;8539;53.188;8.696;2024-02-23T01:39:22;0.10;;;0.10;;
16845;SDS011;8539;53.188;8.696;2024-02-23T01:41:49;0.20;;;0.20;;
16845;SDS011;8539;53.188;8.696;2024-02-23T01:44:17;0.30;;;0.20;;
16845;SDS011;8539;53.188;8.696;2024-02-23T01:46:45;0.30;;;0.30;;
16845;SDS011;8539;53.188;8.696;2024-02-23T01:49:12;1.42;;;0.52;;
16845;SDS011;8539;53.188;8.696;2024-02-23T01:51:40;0.30;;;0.30;;
16845;SDS011;8539;53.188;8.696;2024-02-23T01:54:07;0.25;;;0.25;;
16845;SDS011;8539;53.188;8.696;2024-02-23T01:56:36;0.65;;;0.43;;
16845;SDS011;8539;53.188;8.696;2024-02-23T01:59:06;0.82;;;0.38;;
16845;SDS011;8539;53.188;8.696;2024-02-23T02:01:34;0.80;;;0.20;;
16845;SDS011;8539;53.188;8.696;2024-02-23T02:04:01;0.25;;;0.25;;
16845;SDS011;8539;53.188;8.696;2024-02-23T02:06:28;0.45;;;0.40;;
16845;SDS011;8539;53.188;8.696;2024-02-23T02:08:55;5.15;;;0.68;;
16845;SDS011;8539;53.188;8.696;2024-02-23T02:11:23;0.40;;;0.40;;
16845;SDS011;8539;53.188;8.696;2024-02-23T02:13:50;1.45;;;0.40;;
16845;SDS011;8539;53.188;8.696;2024-02-23T02:16:17;1.88;;;0.40;;
16845;SDS011;8539;53.188;8.696;2024-02-23T02:18:44;0.85;;;0.30;;
16845;SDS011;8539;53.188;8.696;2024-02-23T02:21:12;2.25;;;0.20;;
16845;SDS011;8539;53.188;8.696;2024-02-23T02:23:39;0.25;;;0.25;;
16845;SDS011;8539;53.188;8.696;2024-02-23T02:26:07;1.95;;;0.20;;
16845;SDS011;8539;53.188;8.696;2024-02-23T02:28:34;0.25;;;0.25;;
16845;SDS011;8539;53.188;8.696;2024-02-23T02:31:01;2.28;;;0.40;;
16845;SDS011;8539;53.188;8.696;2024-02-23T02:33:28;0.30;;;0.30;;
16845;SDS011;8539;53.188;8.696;2024-02-23T02:35:55;0.30;;;0.30;;
16845;SDS011;8539;53.188;8.696;2024-02-23T02:38:22;0.57;;;0.30;;
16845;SDS011;8539;53.188;8.696;2024-02-23T02:40:50;0.40;;;0.40;;
16845;SDS011;8539;53.188;8.696;2024-02-23T02:43:17;0.35;;;0.35;;
16845;SDS011;8539;53.188;8.696;2024-02-23T02:45:45;0.32;;;0.30;;
16845;SDS011;8539;53.188;8.696;2024-02-23T02:48:12;0.20;;;0.20;;
16845;SDS011;8539;53.188;8.696;2024-02-23T02:50:39;0.43;;;0.43;;
16845;SDS011;8539;53.188;8.696;2024-02-23T02:53:07;0.30;;;0.30;;
16845;SDS011;8539;53.188;8.696;2024-02-23T02:55:34;0.30;;;0.30;;
16845;SDS011;8539;53.188;8.696;2024-02-23T02:58:01;0.30;;;0.30;;
16845;SDS011;8539;53.188;8.696;2024-02-23T03:00:28;0.57;;;0.50;;
16845;SDS011;8539;53.188;8.696;2024-02-23T03:02:57;1.83;;;0.77;;
16845;SDS011;8539;53.188;8.696;2024-02-23T03:05:24;0.65;;;0.40;;
16845;SDS011;8539;53.188;8.696;2024-02-23T03:07:52;1.50;;;0.60;;
16845;SDS011;8539;53.188;8.696;2024-02-23T03:10:19;3.00;;;0.85;;
16845;SDS011;8539;53.188;8.696;2024-02-23T03:12:46;1.58;;;0.70;;
16845;SDS011;8539;53.188;8.696;2024-02-23T03:15:13;1.33;;;0.68;;
16845;SDS011;8539;53.188;8.696;2024-02-23T03:17:41;2.20;;;0.57;;
16845;SDS011;8539;53.188;8.696;2024-02-23T03:20:10;2.50;;;0.80;;
16845;SDS011;8539;53.188;8.696;2024-02-23T03:22:38;1.55;;;0.82;;
16845;SDS011;8539;53.188;8.696;2024-02-23T03:25:05;3.33;;;1.00;;
16845;SDS011;8539;53.188;8.696;2024-02-23T03:27:39;4.80;;;1.88;;
16845;SDS011;8539;53.188;8.696;2024-02-23T03:30:06;3.80;;;1.38;;
16845;SDS011;8539;53.188;8.696;2024-02-23T03:32:36;2.78;;;1.10;;
16845;SDS011;8539;53.188;8.696;2024-02-23T03:35:06;7.75;;;1.50;;
16845;SDS011;8539;53.188;8.696;2024-02-23T03:37:35;6.53;;;1.58;;
16845;SDS011;8539;53.188;8.696;2024-02-23T03:40:02;5.43;;;1.55;;
16845;SDS011;8539;53.188;8.696;2024-02-23T03:42:31;5.20;;;1.30;;
16845;SDS011;8539;53.188;8.696;2024-02-23T03:44:58;2.55;;;1.40;;
16845;SDS011;8539;53.188;8.696;2024-02-23T03:47:25;4.70;;;2.22;;
16845;SDS011;8539;53.188;8.696;2024-02-23T03:49:53;8.02;;;2.03;;
16845;SDS011;8539;53.188;8.696;2024-02-23T03:52:20;3.45;;;1.90;;
16845;SDS011;8539;53.188;8.696;2024-02-23T03:54:47;8.15;;;2.20;;
16845;SDS011;8539;53.188;8.696;2024-02-23T03:57:14;3.80;;;1.95;;
16845;SDS011;8539;53.188;8.696;2024-02-23T03:59:50;3.17;;;2.45;;
16845;SDS011;8539;53.188;8.696;2024-02-23T04:02:21;4.15;;;2.35;;
16845;SDS011;8539;53.188;8.696;2024-02-23T04:04:48;4.38;;;2.67;;
16845;SDS011;8539;53.188;8.696;2024-02-23T04:07:16;4.90;;;2.47;;
16845;SDS011;8539;53.188;8.696;2024-02-23T04:09:43;4.53;;;2.45;;
16845;SDS011;8539;53.188;8.696;2024-02-23T04:12:10;7.53;;;2.92;;
16845;SDS011;8539;53.188;8.696;2024-02-23T04:14:40;6.22;;;2.85;;
16845;SDS011;8539;53.188;8.696;2024-02-23T04:17:10;10.55;;;2.72;;
16845;SDS011;8539;53.188;8.696;2024-02-23T04:19:41;7.28;;;3.20;;
16845;SDS011;8539;53.188;8.696;2024-02-23T04:22:08;4.40;;;3.15;;
16845;SDS011;8539;53.188;8.696;2024-02-23T04:24:39;7.28;;;2.42;;
16845;SDS011;8539;53.188;8.696;2024-02-23T04:27:07;9.63;;;3.10;;
16845;SDS011;8539;53.188;8.696;2024-02-23T04:29:34;6.05;;;2.17;;
16845;SDS011;8539;53.188;8.696;2024-02-23T04:32:01;7.40;;;2.40;;
16845;SDS011;8539;53.188;8.696;2024-02-23T04:34:30;4.95;;;1.92;;
16845;SDS011;8539;53.188;8.696;2024-02-23T04:36:58;3.65;;;2.08;;
16845;SDS011;8539;53.188;8.696;2024-02-23T04:39:26;2.83;;;1.33;;
16845;SDS011;8539;53.188;8.696;2024-02-23T04:41:53;2.90;;;1.40;;
16845;SDS011;8539;53.188;8.696;2024-02-23T04:44:21;3.15;;;1.60;;
16845;SDS011;8539;53.188;8.696;2024-02-23T04:46:48;1.35;;;1.27;;
16845;SDS011;8539;53.188;8.696;2024-02-23T04:49:15;2.80;;;1.83;;
16845;SDS011;8539;53.188;8.696;2024-02-23T04:51:42;2.03;;;1.40;;
16845;SDS011;8539;53.188;8.696;2024-02-23T04:54:10;2.40;;;1.40;;
16845;SDS011;8539;53.188;8.696;2024-02-23T04:56:37;1.77;;;1.35;;
16845;SDS011;8539;53.188;8.696;2024-02-23T04:59:05;4.88;;;1.17;;
16845;SDS011;8539;53.188;8.696;2024-02-23T05:01:38;9.20;;;1.15;;
16845;SDS011;8539;53.188;8.696;2024-02-23T05:04:05;6.57;;;1.48;;
16845;SDS011;8539;53.188;8.696;2024-02-23T05:06:32;2.15;;;0.93;;
16845;SDS011;8539;53.188;8.696;2024-02-23T05:08:59;1.38;;;1.10;;
16845;SDS011;8539;53.188;8.696;2024-02-23T05:11:28;2.03;;;1.30;;
16845;SDS011;8539;53.188;8.696;2024-02-23T05:13:55;2.67;;;2.17;;
16845;SDS011;8539;53.188;8.696;2024-02-23T05:16:22;2.28;;;1.02;;
16845;SDS011;8539;53.188;8.696;2024-02-23T05:18:49;4.10;;;1.17;;
16845;SDS011;8539;53.188;8.696;2024-02-23T05:21:17;1.40;;;1.23;;
16845;SDS011;8539;53.188;8.696;2024-02-23T05:23:44;3.00;;;1.38;;
16845;SDS011;8539;53.188;8.696;2024-02-23T05:26:12;1.88;;;1.52;;
16845;SDS011;8539;53.188;8.696;2024-02-23T05:28:40;4.13;;;1.50;;
16845;SDS011;8539;53.188;8.696;2024-02-23T05:31:08;6.22;;;1.55;;
16845;SDS011;8539;53.188;8.696;2024-02-23T05:33:36;8.02;;;2.03;;
16845;SDS011;8539;53.188;8.696;2024-02-23T05:36:05;5.63;;;1.70;;
16845;SDS011;8539;53.188;8.696;2024-02-23T05:38:32;4.65;;;2.30;;
16845;SDS011;8539;53.188;8.696;2024-02-23T05:41:00;2.80;;;1.88;;
16845;SDS011;8539;53.188;8.696;2024-02-23T05:43:27;5.28;;;2.00;;
16845;SDS011;8539;53.188;8.696;2024-02-23T05:45:54;10.02;;;4.53;;
16845;SDS011;8539;53.188;8.696;2024-02-23T05:48:23;6.03;;;3.05;;
16845;SDS011;8539;53.188;8.696;2024-02-23T05:50:51;6.50;;;2.55;;
16845;SDS011;8539;53.188;8.696;2024-02-23T05:53:19;4.97;;;2.58;;
16845;SDS011;8539;53.188;8.696;2024-02-23T05:55:46;11.07;;;2.78;;
16845;SDS011;8539;53.188;8.696;2024-02-23T05:58:13;2.45;;;2.25;;
16845;SDS011;8539;53.188;8.696;2024-02-23T06:00:40;5.63;;;4.20;;
16845;SDS011;8539;53.188;8.696;2024-02-23T06:03:07;7.88;;;3.20;;
16845;SDS011;8539;53.188;8.696;2024-02-23T06:05:34;6.85;;;3.17;;
16845;SDS011;8539;53.188;8.696;2024-02-23T06:08:03;6.50;;;3.17;;
16845;SDS011;8539;53.188;8.696;2024-02-23T06:10:30;10.30;;;3.05;;
16845;SDS011;8539;53.188;8.696;2024-02-23T06:12:57;4.68;;;2.53;;
16845;SDS011;8539;53.188;8.696;2024-02-23T06:15:28;12.43;;;3.50;;
16845;SDS011;8539;53.188;8.696;2024-02-23T06:17:55;7.15;;;2.53;;
16845;SDS011;8539;53.188;8.696;2024-02-23T06:20:22;16.80;;;3.38;;
16845;SDS011;8539;53.188;8.696;2024-02-23T06:22:50;8.35;;;2.35;;
16845;SDS011;8539;53.188;8.696;2024-02-23T06:25:17;9.77;;;3.35;;
16845;SDS011;8539;53.188;8.696;2024-02-23T06:27:44;8.60;;;3.05;;
16845;SDS011;8539;53.188;8.696;2024-02-23T06:30:12;4.28;;;2.85;;
16845;SDS011;8539;53.188;8.696;2024-02-23T06:32:39;9.40;;;3.03;;
16845;SDS011;8539;53.188;8.696;2024-02-23T06:35:07;7.30;;;3.50;;
16845;SDS011;8539;53.188;8.696;2024-02-23T06:37:35;12.90;;;3.45;;
16845;SDS011;8539;53.188;8.696;2024-02-23T06:40:02;6.97;;;3.00;;
16845;SDS011;8539;53.188;8.696;2024-02-23T06:42:30;10.80;;;4.28;;
16845;SDS011;8539;53.188;8.696;2024-02-23T06:44:57;10.10;;;3.13;;
16845;SDS011;8539;53.188;8.696;2024-02-23T06:47:24;12.02;;;3.33;;
16845;SDS011;8539;53.188;8.696;2024-02-23T06:49:52;11.30;;;3.75;;
16845;SDS011;8539;53.188;8.696;2024-02-23T06:52:19;11.18;;;3.47;;
16845;SDS011;8539;53.188;8.696;2024-02-23T06:54:48;5.13;;;3.03;;
16845;SDS011;8539;53.188;8.696;2024-02-23T06:57:15;5.75;;;3.35;;
16845;SDS011;8539;53.188;8.696;2024-02-23T06:59:42;14.43;;;3.20;;
16845;SDS011;8539;53.188;8.696;2024-02-23T07:02:10;6.50;;;3.13;;
16845;SDS011;8539;53.188;8.696;2024-02-23T07:04:37;6.55;;;2.95;;
16845;SDS011;8539;53.188;8.696;2024-02-23T07:07:04;9.85;;;3.00;;
16845;SDS011;8539;53.188;8.696;2024-02-23T07:09:34;12.90;;;3.38;;
16845;SDS011;8539;53.188;8.696;2024-02-23T07:12:01;10.13;;;3.22;;
16845;SDS011;8539;53.188;8.696;2024-02-23T07:14:28;6.50;;;3.08;;
16845;SDS011;8539;53.188;8.696;2024-02-23T07:16:55;10.77;;;3.42;;
16845;SDS011;8539;53.188;8.696;2024-02-23T07:19:22;15.40;;;4.38;;
16845;SDS011;8539;53.188;8.696;2024-02-23T07:21:50;9.00;;;3.15;;
16845;SDS011;8539;53.188;8.696;2024-02-23T07:24:17;6.38;;;2.80;;
16845;SDS011;8539;53.188;8.696;2024-02-23T07:26:44;6.10;;;2.70;;
16845;SDS011;8539;53.188;8.696;2024-02-23T07:29:11;16.30;;;3.17;;
16845;SDS011;8539;53.188;8.696;2024-02-23T07:31:40;14.15;;;3.83;;
16845;SDS011;8539;53.188;8.696;2024-02-23T07:34:07;3.28;;;2.25;;
16845;SDS011;8539;53.188;8.696;2024-02-23T07:36:35;7.10;;;2.22;;
16845;SDS011;8539;53.188;8.696;2024-02-23T07:39:03;3.78;;;2.13;;
16845;SDS011;8539;53.188;8.696;2024-02-23T07:41:30;9.75;;;2.53;;
16845;SDS011;8539;53.188;8.696;2024-02-23T07:43:57;7.10;;;1.70;;
16845;SDS011;8539;53.188;8.696;2024-02-23T07:46:24;8.57;;;1.77;;
16845;SDS011;8539;53.188;8.696;2024-02-23T07:48:54;7.70;;;2.70;;
16845;SDS011;8539;53.188;8.696;2024-02-23T07:51:21;5.82;;;2.47;;
16845;SDS011;8539;53.188;8.696;2024-02-23T07:53:48;9.57;;;2.10;;
16845;SDS011;8539;53.188;8.696;2024-02-23T07:56:16;5.35;;;2.80;;
16845;SDS011;8539;53.188;8.696;2024-02-23T07:58:43;5.95;;;2.08;;
16845;SDS011;8539;53.188;8.696;2024-02-23T08:01:12;8.85;;;2.33;;
16845;SDS011;8539;53.188;8.696;2024-02-23T08:03:41;6.35;;;2.20;;
16845;SDS011;8539;53.188;8.696;2024-02-23T08:06:09;7.40;;;2.42;;
16845;SDS011;8539;53.188;8.696;2024-02-23T08:08:37;4.97;;;1.90;;
16845;SDS011;8539;53.188;8.696;2024-02-23T08:11:04;11.57;;;2.28;;
16845;SDS011;8539;53.188;8.696;2024-02-23T08:13:31;8.82;;;2.47;;
16845;SDS011;8539;53.188;8.696;2024-02-23T08:15:58;8.63;;;3.47;;
16845;SDS011;8539;53.188;8.696;2024-02-23T08:18:26;7.25;;;2.30;;
16845;SDS011;8539;53.188;8.696;2024-02-23T08:20:53;3.95;;;2.55;;
16845;SDS011;8539;53.188;8.696;2024-02-23T08:23:21;5.60;;;2.08;;
16845;SDS011;8539;53.188;8.696;2024-02-23T08:25:49;8.23;;;3.08;;
16845;SDS011;8539;53.188;8.696;2024-02-23T08:28:17;7.25;;;1.92;;
16845;SDS011;8539;53.188;8.696;2024-02-23T08:30:45;3.83;;;2.05;;
16845;SDS011;8539;53.188;8.696;2024-02-23T08:33:12;6.57;;;1.70;;
16845;SDS011;8539;53.188;8.696;2024-02-23T08:35:39;8.45;;;2.38;;
16845;SDS011;8539;53.188;8.696;2024-02-23T08:38:06;12.00;;;2.50;;
16845;SDS011;8539;53.188;8.696;2024-02-23T08:40:34;5.93;;;1.88;;
16845;SDS011;8539;53.188;8.696;2024-02-23T08:43:01;7.70;;;2.08;;
16845;SDS011;8539;53.188;8.696;2024-02-23T08:45:29;8.15;;;1.67;;
16845;SDS011;8539;53.188;8.696;2024-02-23T08:47:56;4.22;;;1.63;;
16845;SDS011;8539;53.188;8.696;2024-02-23T08:50:23;4.88;;;1.58;;
16845;SDS011;8539;53.188;8.696;2024-02-23T08:52:50;3.88;;;1.40;;
16845;SDS011;8539;53.188;8.696;2024-02-23T08:55:18;5.85;;;2.00;;
16845;SDS011;8539;53.188;8.696;2024-02-23T08:57:45;14.10;;;2.33;;
16845;SDS011;8539;53.188;8.696;2024-02-23T09:00:12;4.43;;;1.60;;
16845;SDS011;8539;53.188;8.696;2024-02-23T09:02:43;5.80;;;1.73;;
16845;SDS011;8539;53.188;8.696;2024-02-23T09:05:14;10.93;;;2.58;;
16845;SDS011;8539;53.188;8.696;2024-02-23T09:07:43;5.55;;;1.10;;
16845;SDS011;8539;53.188;8.696;2024-02-23T09:10:13;16.35;;;2.42;;
16845;SDS011;8539;53.188;8.696;2024-02-23T09:12:40;5.57;;;1.45;;
16845;SDS011;8539;53.188;8.696;2024-02-23T09:15:08;10.48;;;1.95;;
16845;SDS011;8539;53.188;8.696;2024-02-23T09:17:35;3.83;;;1.92;;
16845;SDS011;8539;53.188;8.696;2024-02-23T09:20:03;4.88;;;2.08;;
16845;SDS011;8539;53.188;8.696;2024-02-23T09:22:30;9.05;;;1.90;;
16845;SDS011;8539;53.188;8.696;2024-02-23T09:24:57;6.47;;;2.22;;
16845;SDS011;8539;53.188;8.696;2024-02-23T09:27:24;9.65;;;2.08;;
16845;SDS011;8539;53.188;8.696;2024-02-23T09:29:52;16.83;;;4.05;;
16845;SDS011;8539;53.188;8.696;2024-02-23T09:32:20;2.20;;;1.27;;
16845;SDS011;8539;53.188;8.696;2024-02-23T09:34:47;5.43;;;1.48;;
16845;SDS011;8539;53.188;8.696;2024-02-23T09:37:14;4.60;;;1.73;;
16845;SDS011;8539;53.188;8.696;2024-02-23T09:39:41;3.78;;;1.77;;
16845;SDS011;8539;53.188;8.696;2024-02-23T09:42:09;8.43;;;2.50;;
16845;SDS011;8539;53.188;8.696;2024-02-23T09:44:37;6.13;;;1.40;;
16845;SDS011;8539;53.188;8.696;2024-02-23T09:47:06;8.00;;;1.63;;
16845;SDS011;8539;53.188;8.696;2024-02-23T09:49:37;2.83;;;1.58;;
16845;SDS011;8539;53.188;8.696;2024-02-23T09:52:07;4.10;;;1.23;;
16845;SDS011;8539;53.188;8.696;2024-02-23T09:54:38;4.80;;;1.08;;
16845;SDS011;8539;53.188;8.696;2024-02-23T09:57:09;2.20;;;1.10;;
16845;SDS011;8539;53.188;8.696;2024-02-23T09:59:37;2.55;;;1.20;;
16845;SDS011;8539;53.188;8.696;2024-02-23T10:02:08;5.22;;;1.15;;
16845;SDS011;8539;53.188;8.696;2024-02-23T10:04:39;4.85;;;1.55;;
16845;SDS011;8539;53.188;8.696;2024-02-23T10:07:15;8.77;;;1.67;;
16845;SDS011;8539;53.188;8.696;2024-02-23T10:09:43;29.75;;;4.70;;
16845;SDS011;8539;53.188;8.696;2024-02-23T10:12:10;8.20;;;2.28;;
16845;SDS011;8539;53.188;8.696;2024-02-23T10:14:37;8.90;;;2.45;;
16845;SDS011;8539;53.188;8.696;2024-02-23T10:17:07;3.10;;;1.67;;
16845;SDS011;8539;53.188;8.696;2024-02-23T10:19:35;2.92;;;1.73;;
16845;SDS011;8539;53.188;8.696;2024-02-23T10:22:02;6.72;;;1.92;;
16845;SDS011;8539;53.188;8.696;2024-02-23T10:24:30;3.53;;;1.65;;
16845;SDS011;8539;53.188;8.696;2024-02-23T10:26:57;6.20;;;1.65;;
16845;SDS011;8539;53.188;8.696;2024-02-23T10:29:25;6.82;;;1.60;;
16845;SDS011;8539;53.188;8.696;2024-02-23T10:31:52;3.03;;;2.03;;
16845;SDS011;8539;53.188;8.696;2024-02-23T10:34:23;7.57;;;2.15;;
16845;SDS011;8539;53.188;8.696;2024-02-23T10:36:50;6.95;;;1.83;;
16845;SDS011;8539;53.188;8.696;2024-02-23T10:39:20;16.13;;;2.78;;
16845;SDS011;8539;53.188;8.696;2024-02-23T10:42:00;4.40;;;1.77;;
16845;SDS011;8539;53.188;8.696;2024-02-23T10:44:30;5.70;;;2.25;;
16845;SDS011;8539;53.188;8.696;2024-02-23T10:46:58;5.70;;;1.80;;
16845;SDS011;8539;53.188;8.696;2024-02-23T10:49:29;8.73;;;2.17;;
16845;SDS011;8539;53.188;8.696;2024-02-23T10:51:58;8.27;;;2.00;;
16845;SDS011;8539;53.188;8.696;2024-02-23T10:54:25;6.03;;;1.50;;
16845;SDS011;8539;53.188;8.696;2024-02-23T10:56:53;2.70;;;1.52;;
16845;SDS011;8539;53.188;8.696;2024-02-23T10:59:22;3.90;;;1.52;;
16845;SDS011;8539;53.188;8.696;2024-02-23T11:01:51;9.77;;;2.83;;
16845;SDS011;8539;53.188;8.696;2024-02-23T11:04:20;8.43;;;2.30;;
16845;SDS011;8539;53.188;8.696;2024-02-23T11:06:52;7.78;;;1.52;;
16845;SDS011;8539;53.188;8.696;2024-02-23T11:09:26;2.63;;;1.30;;
16845;SDS011;8539;53.188;8.696;2024-02-23T11:11:54;5.45;;;1.58;;
16845;SDS011;8539;53.188;8.696;2024-02-23T11:14:34;2.90;;;1.38;;
16845;SDS011;8539;53.188;8.696;2024-02-23T11:17:03;8.85;;;2.92;;
16845;SDS011;8539;53.188;8.696;2024-02-23T11:22:03;7.35;;;2.53;;
16845;SDS011;8539;53.188;8.696;2024-02-23T11:24:33;3.40;;;1.40;;
16845;SDS011;8539;53.188;8.696;2024-02-23T11:27:00;5.97;;;2.03;;
16845;SDS011;8539;53.188;8.696;2024-02-23T11:29:37;6.28;;;1.60;;
16845;SDS011;8539;53.188;8.696;2024-02-23T11:32:12;7.85;;;1.80;;
16845;SDS011;8539;53.188;8.696;2024-02-23T11:34:56;7.78;;;1.88;;
16845;SDS011;8539;53.188;8.696;2024-02-23T11:37:27;6.65;;;1.80;;
16845;SDS011;8539;53.188;8.696;2024-02-23T11:39:55;6.72;;;2.15;;
16845;SDS011;8539;53.188;8.696;2024-02-23T11:42:23;5.07;;;1.83;;
16845;SDS011;8539;53.188;8.696;2024-02-23T11:44:51;7.47;;;1.40;;
16845;SDS011;8539;53.188;8.696;2024-02-23T11:47:20;10.30;;;2.05;;
16845;SDS011;8539;53.188;8.696;2024-02-23T11:49:47;3.70;;;2.17;;
16845;SDS011;8539;53.188;8.696;2024-02-23T11:52:14;10.85;;;1.90;;
16845;SDS011;8539;53.188;8.696;2024-02-23T11:54:43;5.05;;;1.63;;
16845;SDS011;8539;53.188;8.696;2024-02-23T11:57:12;4.75;;;2.25;;
16845;SDS011;8539;53.188;8.696;2024-02-23T11:59:43;4.15;;;1.52;;
16845;SDS011;8539;53.188;8.696;2024-02-23T12:02:10;3.97;;;1.42;;
16845;SDS011;8539;53.188;8.696;2024-02-23T12:04:39;5.72;;;1.27;;
16845;SDS011;8539;53.188;8.696;2024-02-23T12:07:07;9.70;;;1.45;;
16845;SDS011;8539;53.188;8.696;2024-02-23T12:09:34;5.50;;;1.33;;
16845;SDS011;8539;53.188;8.696;2024-02-23T12:12:02;3.92;;;1.35;;
16845;SDS011;8539;53.188;8.696;2024-02-23T12:14:29;1.83;;;1.10;;
16845;SDS011;8539;53.188;8.696;2024-02-23T12:16:57;2.38;;;1.25;;
16845;SDS011;8539;53.188;8.696;2024-02-23T12:19:24;6.38;;;1.77;;
16845;SDS011;8539;53.188;8.696;2024-02-23T12:21:51;5.55;;;1.70;;
16845;SDS011;8539;53.188;8.696;2024-02-23T12:24:19;5.63;;;1.45;;
16845;SDS011;8539;53.188;8.696;2024-02-23T12:26:52;6.57;;;1.85;;
16845;SDS011;8539;53.188;8.696;2024-02-23T12:29:20;2.53;;;1.17;;
16845;SDS011;8539;53.188;8.696;2024-02-23T12:31:47;3.17;;;1.00;;
16845;SDS011;8539;53.188;8.696;2024-02-23T12:34:15;3.05;;;1.38;;
16845;SDS011;8539;53.188;8.696;2024-02-23T12:36:43;5.38;;;1.67;;
16845;SDS011;8539;53.188;8.696;2024-02-23T12:39:12;8.77;;;2.08;;
16845;SDS011;8539;53.188;8.696;2024-02-23T12:41:39;5.25;;;1.20;;
16845;SDS011;8539;53.188;8.696;2024-02-23T12:44:06;4.03;;;1.10;;
16845;SDS011;8539;53.188;8.696;2024-02-23T12:46:33;6.03;;;3.40;;
16845;SDS011;8539;53.188;8.696;2024-02-23T12:49:00;5.28;;;1.40;;
16845;SDS011;8539;53.188;8.696;2024-02-23T12:51:27;7.65;;;1.92;;
16845;SDS011;8539;53.188;8.696;2024-02-23T12:53:55;2.53;;;1.25;;
16845;SDS011;8539;53.188;8.696;2024-02-23T12:56:22;5.13;;;1.42;;
16845;SDS011;8539;53.188;8.696;2024-02-23T12:58:51;5.78;;;1.60;;
16845;SDS011;8539;53.188;8.696;2024-02-23T13:01:20;4.63;;;1.23;;
16845;SDS011;8539;53.188;8.696;2024-02-23T13:03:48;3.17;;;1.30;;
16845;SDS011;8539;53.188;8.696;2024-02-23T13:06:16;5.97;;;1.27;;
16845;SDS011;8539;53.188;8.696;2024-02-23T13:08:43;8.75;;;1.50;;
16845;SDS011;8539;53.188;8.696;2024-02-23T13:11:10;6.50;;;2.25;;
16845;SDS011;8539;53.188;8.696;2024-02-23T13:13:37;3.80;;;1.55;;
16845;SDS011;8539;53.188;8.696;2024-02-23T13:16:07;2.70;;;1.45;;
16845;SDS011;8539;53.188;8.696;2024-02-23T13:18:35;5.28;;;1.88;;
16845;SDS011;8539;53.188;8.696;2024-02-23T13:21:02;7.85;;;1.73;;
16845;SDS011;8539;53.188;8.696;2024-02-23T13:23:31;8.75;;;2.83;;
16845;SDS011;8539;53.188;8.696;2024-02-23T13:26:01;6.43;;;1.98;;
16845;SDS011;8539;53.188;8.696;2024-02-23T13:28:29;8.27;;;2.33;;
16845;SDS011;8539;53.188;8.696;2024-02-23T13:30:57;5.15;;;1.88;;
16845;SDS011;8539;53.188;8.696;2024-02-23T13:33:24;7.18;;;1.65;;
16845;SDS011;8539;53.188;8.696;2024-02-23T13:35:52;3.47;;;1.77;;
16845;SDS011;8539;53.188;8.696;2024-02-23T13:38:20;2.85;;;1.25;;
16845;SDS011;8539;53.188;8.696;2024-02-23T13:40:47;7.60;;;1.52;;
16845;SDS011;8539;53.188;8.696;2024-02-23T13:43:14;5.45;;;1.55;;
16845;SDS011;8539;53.188;8.696;2024-02-23T13:45:48;4.40;;;1.40;;
16845;SDS011;8539;53.188;8.696;2024-02-23T13:48:19;1.90;;;1.20;;
16845;SDS011;8539;53.188;8.696;2024-02-23T13:50:47;4.63;;;1.30;;
16845;SDS011;8539;53.188;8.696;2024-02-23T13:53:15;3.38;;;1.45;;
16845;SDS011;8539;53.188;8.696;2024-02-23T13:55:42;7.53;;;1.55;;
16845;SDS011;8539;53.188;8.696;2024-02-23T13:58:10;4.63;;;1.35;;
16845;SDS011;8539;53.188;8.696;2024-02-23T14:00:38;7.03;;;1.23;;
16845;SDS011;8539;53.188;8.696;2024-02-23T14:03:05;2.03;;;1.00;;
16845;SDS011;8539;53.188;8.696;2024-02-23T14:05:33;6.63;;;1.98;;
16845;SDS011;8539;53.188;8.696;2024-02-23T14:08:01;4.10;;;1.05;;
16845;SDS011;8539;53.188;8.696;2024-02-23T14:10:30;5.10;;;1.50;;
16845;SDS011;8539;53.188;8.696;2024-02-23T14:12:57;2.72;;;2.22;;
16845;SDS011;8539;53.188;8.696;2024-02-23T14:15:25;5.53;;;1.17;;
16845;SDS011;8539;53.188;8.696;2024-02-23T14:17:53;5.07;;;1.58;;
16845;SDS011;8539;53.188;8.696;2024-02-23T14:20:20;2.65;;;1.30;;
16845;SDS011;8539;53.188;8.696;2024-02-23T14:22:47;2.30;;;1.02;;
16845;SDS011;8539;53.188;8.696;2024-02-23T14:25:16;3.70;;;1.30;;
16845;SDS011;8539;53.188;8.696;2024-02-23T14:27:43;4.30;;;1.23;;
16845;SDS011;8539;53.188;8.696;2024-02-23T14:30:10;5.78;;;1.13;;
16845;SDS011;8539;53.188;8.696;2024-02-23T14:32:38;2.47;;;0.98;;
16845;SDS011;8539;53.188;8.696;2024-02-23T14:35:07;2.33;;;1.15;;
16845;SDS011;8539;53.188;8.696;2024-02-23T14:37:36;2.67;;;1.30;;
16845;SDS011;8539;53.188;8.696;2024-02-23T14:40:03;2.75;;;1.60;;
16845;SDS011;8539;53.188;8.696;2024-02-23T14:42:30;7.72;;;1.60;;
16845;SDS011;8539;53.188;8.696;2024-02-23T14:44:57;4.65;;;1.23;;
16845;SDS011;8539;53.188;8.696;2024-02-23T14:47:24;2.95;;;1.25;;
16845;SDS011;8539;53.188;8.696;2024-02-23T14:50:01;4.10;;;1.27;;
16845;SDS011;8539;53.188;8.696;2024-02-23T14:52:28;2.90;;;0.93;;
16845;SDS011;8539;53.188;8.696;2024-02-23T14:54:55;2.95;;;1.10;;
16845;SDS011;8539;53.188;8.696;2024-02-23T14:57:23;1.77;;;1.20;;
16845;SDS011;8539;53.188;8.696;2024-02-23T14:59:50;6.95;;;1.75;;
16845;SDS011;8539;53.188;8.696;2024-02-23T15:02:20;2.55;;;1.25;;
16845;SDS011;8539;53.188;8.696;2024-02-23T15:04:48;1.95;;;1.23;;
16845;SDS011;8539;53.188;8.696;2024-02-23T15:07:23;7.95;;;1.73;;